sensor_id;sensor_type;location;lat;lon;timestamp;temperature;humidity
5128;DHT22;2582;48.770;9.190;2023-08-20T00:00:29;24.60;99.90
5128;DHT22;2582;48.770;9.190;2023-08-20T00:03:21;24.60;99.90
5128;DHT22;2582;48.770;9.190;2023-08-20T00:05:46;24.60;99.90
5128;DHT22;2582;48.770;9.190;2023-08-20T00:08:12;24.50;99.90
5128;DHT22;2582;48.770;9.190;2023-08-20T00:10:38;24.60;99.90
5128;DHT22;2582;48.770;9.190;2023-08-20T00:13:03;24.70;99.90
5128;DHT22;2582;48.770;9.190;2023-08-20T00:15:30;24.70;99.90
5128;DHT22;2582;48.770;9.190;2023-08-20T00:17:56;24.80;99.90
5128;DHT22;2582;48.770;9.190;2023-08-20T00:20:22;24.80;99.90
5128;DHT22;2582;48.770;9.190;2023-08-20T00:22:48;24.90;99.90
5128;DHT22;2582;48.770;9.190;2023-08-20T00:25:15;25.00;99.90
5128;DHT22;2582;48.770;9.190;2023-08-20T00:27:42;25.00;99.90
5128;DHT22;2582;48.770;9.190;2023-08-20T00:30:08;25.10;99.90
5128;DHT22;2582;48.770;9.190;2023-08-20T00:32:34;25.00;99.90
5128;DHT22;2582;48.770;9.190;2023-08-20T00:35:00;25.00;99.90
5128;DHT22;2582;48.770;9.190;2023-08-20T00:37:26;24.90;99.90
5128;DHT22;2582;48.770;9.190;2023-08-20T00:39:51;24.90;99.90
5128;DHT22;2582;48.770;9.190;2023-08-20T00:42:17;24.80;99.90
5128;DHT22;2582;48.770;9.190;2023-08-20T00:44:42;24.80;99.90
5128;DHT22;2582;48.770;9.190;2023-08-20T00:47:12;24.80;99.90
5128;DHT22;2582;48.770;9.190;2023-08-20T00:49:39;24.90;99.90
5128;DHT22;2582;48.770;9.190;2023-08-20T00:52:07;24.90;99.90
5128;DHT22;2582;48.770;9.190;2023-08-20T00:54:33;24.80;99.90
5128;DHT22;2582;48.770;9.190;2023-08-20T00:56:59;24.70;99.90
5128;DHT22;2582;48.770;9.190;2023-08-20T00:59:26;24.70;99.90
5128;DHT22;2582;48.770;9.190;2023-08-20T01:01:53;24.60;99.90
5128;DHT22;2582;48.770;9.190;2023-08-20T01:04:18;24.40;99.90
5128;DHT22;2582;48.770;9.190;2023-08-20T01:07:08;24.30;99.90
5128;DHT22;2582;48.770;9.190;2023-08-20T01:09:50;24.40;99.90
5128;DHT22;2582;48.770;9.190;2023-08-20T01:12:22;24.40;99.90
5128;DHT22;2582;48.770;9.190;2023-08-20T01:14:49;24.30;99.90
5128;DHT22;2582;48.770;9.190;2023-08-20T01:17:14;24.40;99.90
5128;DHT22;2582;48.770;9.190;2023-08-20T01:19:40;24.40;99.90
5128;DHT22;2582;48.770;9.190;2023-08-20T01:25:50;24.40;99.90
5128;DHT22;2582;48.770;9.190;2023-08-20T01:28:27;24.50;99.90
5128;DHT22;2582;48.770;9.190;2023-08-20T01:30:55;24.40;99.90
5128;DHT22;2582;48.770;9.190;2023-08-20T01:33:22;24.30;99.90
5128;DHT22;2582;48.770;9.190;2023-08-20T01:35:50;24.50;99.90
5128;DHT22;2582;48.770;9.190;2023-08-20T01:38:16;24.50;99.90
5128;DHT22;2582;48.770;9.190;2023-08-20T01:40:41;24.50;99.90
5128;DHT22;2582;48.770;9.190;2023-08-20T01:43:07;24.50;99.90
5128;DHT22;2582;48.770;9.190;2023-08-20T01:45:32;24.40;99.90
5128;DHT22;2582;48.770;9.190;2023-08-20T01:47:58;24.30;99.90
5128;DHT22;2582;48.770;9.190;2023-08-20T01:50:23;24.30;99.90
5128;DHT22;2582;48.770;9.190;2023-08-20T01:52:49;24.20;99.90
5128;DHT22;2582;48.770;9.190;2023-08-20T01:55:15;24.20;99.90
5128;DHT22;2582;48.770;9.190;2023-08-20T01:57:40;24.20;99.90
5128;DHT22;2582;48.770;9.190;2023-08-20T02:00:06;24.20;99.90
5128;DHT22;2582;48.770;9.190;2023-08-20T02:02:32;24.10;99.90
5128;DHT22;2582;48.770;9.190;2023-08-20T02:04:58;24.20;99.90
5128;DHT22;2582;48.770;9.190;2023-08-20T02:07:23;24.30;99.90
5128;DHT22;2582;48.770;9.190;2023-08-20T02:09:49;24.30;99.90
5128;DHT22;2582;48.770;9.190;2023-08-20T02:12:15;24.40;99.90
5128;DHT22;2582;48.770;9.190;2023-08-20T02:14:40;24.40;99.90
5128;DHT22;2582;48.770;9.190;2023-08-20T02:17:07;24.30;99.90
5128;DHT22;2582;48.770;9.190;2023-08-20T02:19:32;24.30;99.90
5128;DHT22;2582;48.770;9.190;2023-08-20T02:21:58;24.30;99.90
5128;DHT22;2582;48.770;9.190;2023-08-20T02:24:24;24.20;99.90
5128;DHT22;2582;48.770;9.190;2023-08-20T02:26:49;24.20;99.90
5128;DHT22;2582;48.770;9.190;2023-08-20T02:29:15;24.20;99.90
5128;DHT22;2582;48.770;9.190;2023-08-20T02:31:40;24.20;99.90
5128;DHT22;2582;48.770;9.190;2023-08-20T02:34:06;24.10;99.90
5128;DHT22;2582;48.770;9.190;2023-08-20T02:36:31;24.00;99.90
5128;DHT22;2582;48.770;9.190;2023-08-20T02:38:57;23.90;99.90
5128;DHT22;2582;48.770;9.190;2023-08-20T02:41:23;23.80;99.90
5128;DHT22;2582;48.770;9.190;2023-08-20T02:43:48;23.80;99.90
5128;DHT22;2582;48.770;9.190;2023-08-20T02:46:14;23.80;99.90
5128;DHT22;2582;48.770;9.190;2023-08-20T02:48:40;23.80;99.90
5128;DHT22;2582;48.770;9.190;2023-08-20T02:51:05;23.80;99.90
5128;DHT22;2582;48.770;9.190;2023-08-20T02:53:31;23.80;99.90
5128;DHT22;2582;48.770;9.190;2023-08-20T02:55:56;23.90;99.90
5128;DHT22;2582;48.770;9.190;2023-08-20T02:58:22;23.80;99.90
5128;DHT22;2582;48.770;9.190;2023-08-20T03:00:48;23.80;99.90
5128;DHT22;2582;48.770;9.190;2023-08-20T03:03:13;23.90;99.90
5128;DHT22;2582;48.770;9.190;2023-08-20T03:05:39;23.90;99.90
5128;DHT22;2582;48.770;9.190;2023-08-20T03:08:05;23.80;99.90
5128;DHT22;2582;48.770;9.190;2023-08-20T03:10:31;23.80;99.90
5128;DHT22;2582;48.770;9.190;2023-08-20T03:13:01;23.80;99.90
5128;DHT22;2582;48.770;9.190;2023-08-20T03:15:28;23.80;99.90
5128;DHT22;2582;48.770;9.190;2023-08-20T03:17:54;23.70;99.90
5128;DHT22;2582;48.770;9.190;2023-08-20T03:20:19;23.70;99.90
5128;DHT22;2582;48.770;9.190;2023-08-20T03:22:45;23.70;99.90
5128;DHT22;2582;48.770;9.190;2023-08-20T03:25:10;23.60;99.90
5128;DHT22;2582;48.770;9.190;2023-08-20T03:27:36;23.60;99.90
5128;DHT22;2582;48.770;9.190;2023-08-20T03:30:02;23.60;99.90
5128;DHT22;2582;48.770;9.190;2023-08-20T03:32:28;23.60;99.90
5128;DHT22;2582;48.770;9.190;2023-08-20T03:34:54;23.60;99.90
5128;DHT22;2582;48.770;9.190;2023-08-20T03:37:21;23.60;99.90
5128;DHT22;2582;48.770;9.190;2023-08-20T03:39:47;23.70;99.90
5128;DHT22;2582;48.770;9.190;2023-08-20T03:42:13;23.70;99.90
5128;DHT22;2582;48.770;9.190;2023-08-20T03:44:38;23.70;99.90
5128;DHT22;2582;48.770;9.190;2023-08-20T03:47:04;23.70;99.90
5128;DHT22;2582;48.770;9.190;2023-08-20T03:49:30;23.60;99.90
5128;DHT22;2582;48.770;9.190;2023-08-20T03:51:55;23.50;99.90
5128;DHT22;2582;48.770;9.190;2023-08-20T03:54:21;23.40;99.90
5128;DHT22;2582;48.770;9.190;2023-08-20T03:56:46;23.30;99.90
5128;DHT22;2582;48.770;9.190;2023-08-20T03:59:12;23.40;99.90
5128;DHT22;2582;48.770;9.190;2023-08-20T04:01:37;23.40;99.90
5128;DHT22;2582;48.770;9.190;2023-08-20T04:04:04;23.40;99.90
5128;DHT22;2582;48.770;9.190;2023-08-20T04:06:29;23.40;99.90
5128;DHT22;2582;48.770;9.190;2023-08-20T04:08:55;23.40;99.90
5128;DHT22;2582;48.770;9.190;2023-08-20T04:11:20;23.30;99.90
5128;DHT22;2582;48.770;9.190;2023-08-20T04:13:46;23.30;99.90
5128;DHT22;2582;48.770;9.190;2023-08-20T04:16:12;23.40;99.90
5128;DHT22;2582;48.770;9.190;2023-08-20T04:18:38;23.40;99.90
5128;DHT22;2582;48.770;9.190;2023-08-20T04:21:03;23.40;99.90
5128;DHT22;2582;48.770;9.190;2023-08-20T04:23:29;23.40;99.90
5128;DHT22;2582;48.770;9.190;2023-08-20T04:25:54;23.30;99.90
5128;DHT22;2582;48.770;9.190;2023-08-20T04:28:20;23.30;99.90
5128;DHT22;2582;48.770;9.190;2023-08-20T04:30:45;23.20;99.90
5128;DHT22;2582;48.770;9.190;2023-08-20T04:33:11;23.10;99.90
5128;DHT22;2582;48.770;9.190;2023-08-20T04:35:36;23.20;99.90
5128;DHT22;2582;48.770;9.190;2023-08-20T04:38:02;23.10;99.90
5128;DHT22;2582;48.770;9.190;2023-08-20T04:40:28;23.30;99.90
5128;DHT22;2582;48.770;9.190;2023-08-20T04:42:53;23.30;99.90
5128;DHT22;2582;48.770;9.190;2023-08-20T04:45:19;23.30;99.90
5128;DHT22;2582;48.770;9.190;2023-08-20T04:47:45;23.30;99.90
5128;DHT22;2582;48.770;9.190;2023-08-20T04:50:11;23.30;99.90
5128;DHT22;2582;48.770;9.190;2023-08-20T04:52:37;23.40;99.90
5128;DHT22;2582;48.770;9.190;2023-08-20T04:55:03;23.40;99.90
5128;DHT22;2582;48.770;9.190;2023-08-20T04:57:28;23.40;99.90
5128;DHT22;2582;48.770;9.190;2023-08-20T04:59:54;23.50;99.90
5128;DHT22;2582;48.770;9.190;2023-08-20T05:02:20;23.50;99.90
5128;DHT22;2582;48.770;9.190;2023-08-20T05:04:45;23.50;99.90
5128;DHT22;2582;48.770;9.190;2023-08-20T05:07:11;23.50;99.90
5128;DHT22;2582;48.770;9.190;2023-08-20T05:09:37;23.50;99.90
5128;DHT22;2582;48.770;9.190;2023-08-20T05:12:02;23.50;99.90
5128;DHT22;2582;48.770;9.190;2023-08-20T05:14:29;23.60;99.90
5128;DHT22;2582;48.770;9.190;2023-08-20T05:16:55;23.60;99.90
5128;DHT22;2582;48.770;9.190;2023-08-20T05:19:20;23.60;99.90
5128;DHT22;2582;48.770;9.190;2023-08-20T05:21:46;23.60;99.90
5128;DHT22;2582;48.770;9.190;2023-08-20T05:24:11;23.70;99.90
5128;DHT22;2582;48.770;9.190;2023-08-20T05:26:37;23.60;99.90
5128;DHT22;2582;48.770;9.190;2023-08-20T05:29:02;23.50;99.90
5128;DHT22;2582;48.770;9.190;2023-08-20T05:31:28;23.40;99.90
5128;DHT22;2582;48.770;9.190;2023-08-20T05:33:54;23.40;99.90
5128;DHT22;2582;48.770;9.190;2023-08-20T05:36:19;23.40;99.90
5128;DHT22;2582;48.770;9.190;2023-08-20T05:38:45;23.40;99.90
5128;DHT22;2582;48.770;9.190;2023-08-20T05:41:10;23.50;99.90
5128;DHT22;2582;48.770;9.190;2023-08-20T05:43:36;23.70;99.90
5128;DHT22;2582;48.770;9.190;2023-08-20T05:46:02;23.90;99.90
5128;DHT22;2582;48.770;9.190;2023-08-20T05:48:28;24.00;99.90
5128;DHT22;2582;48.770;9.190;2023-08-20T05:50:55;24.20;99.90
5128;DHT22;2582;48.770;9.190;2023-08-20T05:53:24;24.30;99.90
5128;DHT22;2582;48.770;9.190;2023-08-20T05:55:49;24.10;99.90
5128;DHT22;2582;48.770;9.190;2023-08-20T05:58:15;24.20;99.90
5128;DHT22;2582;48.770;9.190;2023-08-20T06:00:40;24.40;99.90
5128;DHT22;2582;48.770;9.190;2023-08-20T06:03:07;24.50;99.90
5128;DHT22;2582;48.770;9.190;2023-08-20T06:05:33;24.70;99.90
5128;DHT22;2582;48.770;9.190;2023-08-20T06:07:59;24.80;99.90
5128;DHT22;2582;48.770;9.190;2023-08-20T06:10:24;25.10;99.90
5128;DHT22;2582;48.770;9.190;2023-08-20T06:12:50;25.30;99.90
5128;DHT22;2582;48.770;9.190;2023-08-20T06:15:16;25.30;99.90
5128;DHT22;2582;48.770;9.190;2023-08-20T06:17:41;25.20;99.90
5128;DHT22;2582;48.770;9.190;2023-08-20T06:20:07;25.50;99.90
5128;DHT22;2582;48.770;9.190;2023-08-20T06:22:34;25.70;99.90
5128;DHT22;2582;48.770;9.190;2023-08-20T06:25:00;25.90;99.90
5128;DHT22;2582;48.770;9.190;2023-08-20T06:27:26;25.90;99.90
5128;DHT22;2582;48.770;9.190;2023-08-20T06:29:51;26.00;99.90
5128;DHT22;2582;48.770;9.190;2023-08-20T06:32:17;26.00;99.90
5128;DHT22;2582;48.770;9.190;2023-08-20T06:34:42;26.00;99.90
5128;DHT22;2582;48.770;9.190;2023-08-20T06:37:08;25.80;99.90
5128;DHT22;2582;48.770;9.190;2023-08-20T06:39:34;25.50;99.90
5128;DHT22;2582;48.770;9.190;2023-08-20T06:41:59;25.70;99.90
5128;DHT22;2582;48.770;9.190;2023-08-20T06:44:25;25.90;99.90
5128;DHT22;2582;48.770;9.190;2023-08-20T06:46:51;26.20;99.90
5128;DHT22;2582;48.770;9.190;2023-08-20T06:49:17;26.40;99.90
5128;DHT22;2582;48.770;9.190;2023-08-20T06:51:42;26.60;99.90
5128;DHT22;2582;48.770;9.190;2023-08-20T06:54:08;26.60;99.90
5128;DHT22;2582;48.770;9.190;2023-08-20T06:56:33;26.70;99.90
5128;DHT22;2582;48.770;9.190;2023-08-20T06:59:00;26.90;99.90
5128;DHT22;2582;48.770;9.190;2023-08-20T07:01:26;26.70;99.90
5128;DHT22;2582;48.770;9.190;2023-08-20T07:03:51;26.80;99.90
5128;DHT22;2582;48.770;9.190;2023-08-20T07:06:17;26.60;99.90
5128;DHT22;2582;48.770;9.190;2023-08-20T07:08:44;26.70;99.90
5128;DHT22;2582;48.770;9.190;2023-08-20T07:11:09;26.70;99.90
5128;DHT22;2582;48.770;9.190;2023-08-20T07:13:35;26.90;99.90
5128;DHT22;2582;48.770;9.190;2023-08-20T07:16:01;26.90;99.90
5128;DHT22;2582;48.770;9.190;2023-08-20T07:18:27;26.70;99.90
5128;DHT22;2582;48.770;9.190;2023-08-20T07:20:52;26.90;99.90
5128;DHT22;2582;48.770;9.190;2023-08-20T07:23:18;26.80;99.90
5128;DHT22;2582;48.770;9.190;2023-08-20T07:25:43;26.80;99.90
5128;DHT22;2582;48.770;9.190;2023-08-20T07:28:10;26.90;99.90
5128;DHT22;2582;48.770;9.190;2023-08-20T07:30:36;27.20;99.90
5128;DHT22;2582;48.770;9.190;2023-08-20T07:33:03;27.30;99.90
5128;DHT22;2582;48.770;9.190;2023-08-20T07:35:28;27.40;99.90
5128;DHT22;2582;48.770;9.190;2023-08-20T07:37:54;26.90;99.90
5128;DHT22;2582;48.770;9.190;2023-08-20T07:40:20;26.70;99.90
5128;DHT22;2582;48.770;9.190;2023-08-20T07:42:45;26.90;99.90
5128;DHT22;2582;48.770;9.190;2023-08-20T07:45:11;27.20;99.90
5128;DHT22;2582;48.770;9.190;2023-08-20T07:47:37;26.90;99.90
5128;DHT22;2582;48.770;9.190;2023-08-20T07:50:06;26.60;99.90
5128;DHT22;2582;48.770;9.190;2023-08-20T07:52:32;26.60;99.90
5128;DHT22;2582;48.770;9.190;2023-08-20T07:54:58;27.10;99.90
5128;DHT22;2582;48.770;9.190;2023-08-20T07:57:24;27.20;99.90
5128;DHT22;2582;48.770;9.190;2023-08-20T07:59:50;27.00;99.90
5128;DHT22;2582;48.770;9.190;2023-08-20T08:02:16;27.20;99.90
5128;DHT22;2582;48.770;9.190;2023-08-20T08:04:42;27.40;99.90
5128;DHT22;2582;48.770;9.190;2023-08-20T08:07:08;27.50;99.90
5128;DHT22;2582;48.770;9.190;2023-08-20T08:09:34;27.70;99.90
5128;DHT22;2582;48.770;9.190;2023-08-20T08:12:00;27.70;99.90
5128;DHT22;2582;48.770;9.190;2023-08-20T08:14:26;27.70;99.90
5128;DHT22;2582;48.770;9.190;2023-08-20T08:16:52;27.50;99.90
5128;DHT22;2582;48.770;9.190;2023-08-20T08:19:18;27.60;99.90
5128;DHT22;2582;48.770;9.190;2023-08-20T08:21:45;27.60;99.90
5128;DHT22;2582;48.770;9.190;2023-08-20T08:24:11;27.70;99.90
5128;DHT22;2582;48.770;9.190;2023-08-20T08:26:37;27.90;99.90
5128;DHT22;2582;48.770;9.190;2023-08-20T08:29:03;27.60;99.90
5128;DHT22;2582;48.770;9.190;2023-08-20T08:31:29;27.70;99.90
5128;DHT22;2582;48.770;9.190;2023-08-20T08:33:54;28.00;99.90
5128;DHT22;2582;48.770;9.190;2023-08-20T08:36:20;27.70;99.90
5128;DHT22;2582;48.770;9.190;2023-08-20T08:38:45;27.90;99.90
5128;DHT22;2582;48.770;9.190;2023-08-20T08:41:12;27.60;99.90
5128;DHT22;2582;48.770;9.190;2023-08-20T08:43:39;27.60;99.90
5128;DHT22;2582;48.770;9.190;2023-08-20T08:46:14;27.80;99.90
5128;DHT22;2582;48.770;9.190;2023-08-20T08:48:41;28.20;99.90
5128;DHT22;2582;48.770;9.190;2023-08-20T08:51:08;28.20;99.90
5128;DHT22;2582;48.770;9.190;2023-08-20T08:53:33;28.10;99.90
5128;DHT22;2582;48.770;9.190;2023-08-20T08:56:00;28.00;99.90
5128;DHT22;2582;48.770;9.190;2023-08-20T08:58:26;27.90;99.90
5128;DHT22;2582;48.770;9.190;2023-08-20T09:00:52;27.90;99.90
5128;DHT22;2582;48.770;9.190;2023-08-20T09:03:18;27.80;99.90
5128;DHT22;2582;48.770;9.190;2023-08-20T09:08:32;28.40;99.90
5128;DHT22;2582;48.770;9.190;2023-08-20T09:10:59;28.60;99.90
5128;DHT22;2582;48.770;9.190;2023-08-20T09:13:32;28.30;99.90
5128;DHT22;2582;48.770;9.190;2023-08-20T09:15:58;28.20;99.90
5128;DHT22;2582;48.770;9.190;2023-08-20T09:18:23;28.20;99.90
5128;DHT22;2582;48.770;9.190;2023-08-20T09:20:49;28.40;99.90
5128;DHT22;2582;48.770;9.190;2023-08-20T09:23:15;28.60;99.90
5128;DHT22;2582;48.770;9.190;2023-08-20T09:25:42;28.80;99.90
5128;DHT22;2582;48.770;9.190;2023-08-20T09:28:07;28.80;99.90
5128;DHT22;2582;48.770;9.190;2023-08-20T09:30:33;29.00;99.90
5128;DHT22;2582;48.770;9.190;2023-08-20T09:33:12;29.10;99.90
5128;DHT22;2582;48.770;9.190;2023-08-20T09:35:51;29.20;99.90
5128;DHT22;2582;48.770;9.190;2023-08-20T09:38:19;29.10;99.90
5128;DHT22;2582;48.770;9.190;2023-08-20T09:40:49;29.00;99.90
5128;DHT22;2582;48.770;9.190;2023-08-20T09:43:16;29.00;99.90
5128;DHT22;2582;48.770;9.190;2023-08-20T09:45:42;29.10;99.90
5128;DHT22;2582;48.770;9.190;2023-08-20T09:48:09;29.10;99.90
5128;DHT22;2582;48.770;9.190;2023-08-20T09:50:37;29.00;99.90
5128;DHT22;2582;48.770;9.190;2023-08-20T09:53:11;28.90;99.90
5128;DHT22;2582;48.770;9.190;2023-08-20T09:55:39;29.00;99.90
5128;DHT22;2582;48.770;9.190;2023-08-20T09:58:07;29.30;99.90
5128;DHT22;2582;48.770;9.190;2023-08-20T10:00:32;29.70;99.90
5128;DHT22;2582;48.770;9.190;2023-08-20T10:02:59;29.80;99.90
5128;DHT22;2582;48.770;9.190;2023-08-20T10:05:25;29.50;99.90
5128;DHT22;2582;48.770;9.190;2023-08-20T10:07:52;29.60;99.90
5128;DHT22;2582;48.770;9.190;2023-08-20T10:10:20;29.80;99.90
5128;DHT22;2582;48.770;9.190;2023-08-20T10:12:45;29.90;99.90
5128;DHT22;2582;48.770;9.190;2023-08-20T10:15:12;30.10;99.90
5128;DHT22;2582;48.770;9.190;2023-08-20T10:17:41;30.50;99.90
5128;DHT22;2582;48.770;9.190;2023-08-20T10:20:07;30.10;99.90
5128;DHT22;2582;48.770;9.190;2023-08-20T10:22:44;30.20;99.90
5128;DHT22;2582;48.770;9.190;2023-08-20T10:25:33;30.30;99.90
5128;DHT22;2582;48.770;9.190;2023-08-20T10:31:16;30.70;99.90
5128;DHT22;2582;48.770;9.190;2023-08-20T10:36:16;30.30;99.90
5128;DHT22;2582;48.770;9.190;2023-08-20T10:38:45;30.50;99.90
5128;DHT22;2582;48.770;9.190;2023-08-20T10:41:11;30.70;99.90
5128;DHT22;2582;48.770;9.190;2023-08-20T10:43:45;31.00;99.90
5128;DHT22;2582;48.770;9.190;2023-08-20T10:46:25;31.20;99.90
5128;DHT22;2582;48.770;9.190;2023-08-20T10:48:56;31.30;99.90
5128;DHT22;2582;48.770;9.190;2023-08-20T10:51:36;31.40;99.90
5128;DHT22;2582;48.770;9.190;2023-08-20T10:56:55;31.70;99.90
5128;DHT22;2582;48.770;9.190;2023-08-20T10:59:27;32.70;99.90
5128;DHT22;2582;48.770;9.190;2023-08-20T11:01:55;33.70;99.90
5128;DHT22;2582;48.770;9.190;2023-08-20T11:04:22;34.60;99.20
5128;DHT22;2582;48.770;9.190;2023-08-20T11:06:56;36.00;96.80
5128;DHT22;2582;48.770;9.190;2023-08-20T11:09:29;36.60;93.60
5128;DHT22;2582;48.770;9.190;2023-08-20T11:11:55;36.50;93.80
5128;DHT22;2582;48.770;9.190;2023-08-20T11:14:21;36.50;93.10
5128;DHT22;2582;48.770;9.190;2023-08-20T11:16:47;36.20;92.90
5128;DHT22;2582;48.770;9.190;2023-08-20T11:19:15;36.30;92.40
5128;DHT22;2582;48.770;9.190;2023-08-20T11:21:44;37.10;91.60
5128;DHT22;2582;48.770;9.190;2023-08-20T11:24:11;36.90;91.20
5128;DHT22;2582;48.770;9.190;2023-08-20T11:26:40;36.80;91.60
5128;DHT22;2582;48.770;9.190;2023-08-20T11:29:10;37.30;91.60
5128;DHT22;2582;48.770;9.190;2023-08-20T11:31:38;37.90;90.00
5128;DHT22;2582;48.770;9.190;2023-08-20T11:34:04;38.00;89.80
5128;DHT22;2582;48.770;9.190;2023-08-20T11:36:31;38.60;86.10
5128;DHT22;2582;48.770;9.190;2023-08-20T11:38:56;37.60;88.00
5128;DHT22;2582;48.770;9.190;2023-08-20T11:41:23;37.20;87.70
5128;DHT22;2582;48.770;9.190;2023-08-20T11:43:50;38.20;86.40
5128;DHT22;2582;48.770;9.190;2023-08-20T11:46:17;38.90;84.30
5128;DHT22;2582;48.770;9.190;2023-08-20T11:49:26;40.60;80.00
5128;DHT22;2582;48.770;9.190;2023-08-20T11:51:52;40.60;75.50
5128;DHT22;2582;48.770;9.190;2023-08-20T11:54:18;39.80;78.10
5128;DHT22;2582;48.770;9.190;2023-08-20T11:56:44;39.40;78.10
5128;DHT22;2582;48.770;9.190;2023-08-20T11:59:11;40.10;74.20
5128;DHT22;2582;48.770;9.190;2023-08-20T12:01:37;40.90;72.60
5128;DHT22;2582;48.770;9.190;2023-08-20T12:04:04;40.30;72.70
5128;DHT22;2582;48.770;9.190;2023-08-20T12:06:30;41.70;69.10
5128;DHT22;2582;48.770;9.190;2023-08-20T12:08:57;40.80;69.70
5128;DHT22;2582;48.770;9.190;2023-08-20T12:11:29;39.60;71.60
5128;DHT22;2582;48.770;9.190;2023-08-20T12:13:55;40.90;69.50
5128;DHT22;2582;48.770;9.190;2023-08-20T12:16:22;40.20;69.70
5128;DHT22;2582;48.770;9.190;2023-08-20T12:18:51;38.00;74.00
5128;DHT22;2582;48.770;9.190;2023-08-20T12:21:16;38.20;75.10
5128;DHT22;2582;48.770;9.190;2023-08-20T12:23:42;39.80;73.20
5128;DHT22;2582;48.770;9.190;2023-08-20T12:26:08;39.90;70.00
5128;DHT22;2582;48.770;9.190;2023-08-20T12:28:34;39.80;71.50
5128;DHT22;2582;48.770;9.190;2023-08-20T12:31:00;39.90;69.90
5128;DHT22;2582;48.770;9.190;2023-08-20T12:33:25;39.80;70.20
5128;DHT22;2582;48.770;9.190;2023-08-20T12:35:54;39.80;69.90
5128;DHT22;2582;48.770;9.190;2023-08-20T12:38:20;40.90;66.90
5128;DHT22;2582;48.770;9.190;2023-08-20T12:40:46;40.30;66.70
5128;DHT22;2582;48.770;9.190;2023-08-20T12:43:12;38.40;69.90
5128;DHT22;2582;48.770;9.190;2023-08-20T12:45:37;39.30;69.90
5128;DHT22;2582;48.770;9.190;2023-08-20T12:48:04;39.50;68.30
5128;DHT22;2582;48.770;9.190;2023-08-20T12:50:30;38.70;69.60
5128;DHT22;2582;48.770;9.190;2023-08-20T12:52:56;38.60;71.00
5128;DHT22;2582;48.770;9.190;2023-08-20T12:55:22;38.60;69.40
5128;DHT22;2582;48.770;9.190;2023-08-20T12:57:58;38.00;72.30
5128;DHT22;2582;48.770;9.190;2023-08-20T13:00:24;38.60;70.50
5128;DHT22;2582;48.770;9.190;2023-08-20T13:02:56;38.40;70.20
5128;DHT22;2582;48.770;9.190;2023-08-20T13:05:26;38.50;69.70
5128;DHT22;2582;48.770;9.190;2023-08-20T13:07:52;38.60;70.20
5128;DHT22;2582;48.770;9.190;2023-08-20T13:10:18;40.60;65.50
5128;DHT22;2582;48.770;9.190;2023-08-20T13:12:54;40.30;65.60
5128;DHT22;2582;48.770;9.190;2023-08-20T13:15:21;41.20;62.70
5128;DHT22;2582;48.770;9.190;2023-08-20T13:17:49;42.10;62.20
5128;DHT22;2582;48.770;9.190;2023-08-20T13:20:15;41.50;61.60
5128;DHT22;2582;48.770;9.190;2023-08-20T13:22:46;41.80;61.30
5128;DHT22;2582;48.770;9.190;2023-08-20T13:25:12;41.40;61.00
5128;DHT22;2582;48.770;9.190;2023-08-20T13:27:37;40.60;61.80
5128;DHT22;2582;48.770;9.190;2023-08-20T13:30:03;40.00;63.50
5128;DHT22;2582;48.770;9.190;2023-08-20T13:32:29;39.90;63.00
5128;DHT22;2582;48.770;9.190;2023-08-20T13:34:54;39.50;64.90
5128;DHT22;2582;48.770;9.190;2023-08-20T13:37:20;40.20;63.20
5128;DHT22;2582;48.770;9.190;2023-08-20T13:39:45;39.30;64.20
5128;DHT22;2582;48.770;9.190;2023-08-20T13:42:11;39.10;64.80
5128;DHT22;2582;48.770;9.190;2023-08-20T13:44:36;39.90;63.90
5128;DHT22;2582;48.770;9.190;2023-08-20T13:47:02;39.70;63.50
5128;DHT22;2582;48.770;9.190;2023-08-20T13:49:27;38.60;65.20
5128;DHT22;2582;48.770;9.190;2023-08-20T13:51:53;39.20;66.70
5128;DHT22;2582;48.770;9.190;2023-08-20T13:54:18;39.10;64.50
5128;DHT22;2582;48.770;9.190;2023-08-20T13:56:44;40.50;63.60
5128;DHT22;2582;48.770;9.190;2023-08-20T13:59:10;40.00;62.80
5128;DHT22;2582;48.770;9.190;2023-08-20T14:01:36;40.30;63.10
5128;DHT22;2582;48.770;9.190;2023-08-20T14:04:01;40.80;62.30
5128;DHT22;2582;48.770;9.190;2023-08-20T14:06:28;40.90;61.70
5128;DHT22;2582;48.770;9.190;2023-08-20T14:08:54;41.60;59.40
5128;DHT22;2582;48.770;9.190;2023-08-20T14:11:19;42.70;58.00
5128;DHT22;2582;48.770;9.190;2023-08-20T14:13:47;43.50;56.40
5128;DHT22;2582;48.770;9.190;2023-08-20T14:16:12;43.10;57.30
5128;DHT22;2582;48.770;9.190;2023-08-20T14:18:38;42.40;57.80
5128;DHT22;2582;48.770;9.190;2023-08-20T14:21:03;41.10;59.50
5128;DHT22;2582;48.770;9.190;2023-08-20T14:23:29;40.30;62.10
5128;DHT22;2582;48.770;9.190;2023-08-20T14:25:55;41.20;62.10
5128;DHT22;2582;48.770;9.190;2023-08-20T14:28:21;40.20;63.40
5128;DHT22;2582;48.770;9.190;2023-08-20T14:30:48;40.40;63.60
5128;DHT22;2582;48.770;9.190;2023-08-20T14:33:15;41.40;61.60
5128;DHT22;2582;48.770;9.190;2023-08-20T14:35:40;42.20;61.50
5128;DHT22;2582;48.770;9.190;2023-08-20T14:38:06;41.80;59.30
5128;DHT22;2582;48.770;9.190;2023-08-20T14:40:36;41.40;60.40
5128;DHT22;2582;48.770;9.190;2023-08-20T14:43:04;40.10;62.30
5128;DHT22;2582;48.770;9.190;2023-08-20T14:45:30;39.80;63.60
5128;DHT22;2582;48.770;9.190;2023-08-20T14:47:55;39.70;63.70
5128;DHT22;2582;48.770;9.190;2023-08-20T14:50:21;39.90;62.90
5128;DHT22;2582;48.770;9.190;2023-08-20T14:52:46;38.80;64.90
5128;DHT22;2582;48.770;9.190;2023-08-20T14:55:20;38.20;67.20
5128;DHT22;2582;48.770;9.190;2023-08-20T14:57:46;37.70;67.90
5128;DHT22;2582;48.770;9.190;2023-08-20T15:00:13;37.90;68.30
5128;DHT22;2582;48.770;9.190;2023-08-20T15:02:46;37.60;68.00
5128;DHT22;2582;48.770;9.190;2023-08-20T15:05:12;36.90;69.80
5128;DHT22;2582;48.770;9.190;2023-08-20T15:07:38;36.40;70.50
5128;DHT22;2582;48.770;9.190;2023-08-20T15:10:04;35.80;71.90
5128;DHT22;2582;48.770;9.190;2023-08-20T15:12:33;36.00;71.30
5128;DHT22;2582;48.770;9.190;2023-08-20T15:14:59;35.80;71.50
5128;DHT22;2582;48.770;9.190;2023-08-20T15:17:25;35.50;72.40
5128;DHT22;2582;48.770;9.190;2023-08-20T15:19:51;36.00;72.10
5128;DHT22;2582;48.770;9.190;2023-08-20T15:22:16;36.30;70.60
5128;DHT22;2582;48.770;9.190;2023-08-20T15:24:42;36.30;70.00
5128;DHT22;2582;48.770;9.190;2023-08-20T15:27:08;36.90;68.60
5128;DHT22;2582;48.770;9.190;2023-08-20T15:29:33;37.60;67.80
5128;DHT22;2582;48.770;9.190;2023-08-20T15:31:59;37.60;67.50
5128;DHT22;2582;48.770;9.190;2023-08-20T15:34:25;38.30;66.40
5128;DHT22;2582;48.770;9.190;2023-08-20T15:36:50;38.50;65.70
5128;DHT22;2582;48.770;9.190;2023-08-20T15:39:16;37.70;66.00
5128;DHT22;2582;48.770;9.190;2023-08-20T15:41:44;36.90;67.40
5128;DHT22;2582;48.770;9.190;2023-08-20T15:44:11;37.20;68.20
5128;DHT22;2582;48.770;9.190;2023-08-20T15:46:37;37.40;67.20
5128;DHT22;2582;48.770;9.190;2023-08-20T15:49:03;37.90;64.90
5128;DHT22;2582;48.770;9.190;2023-08-20T15:51:29;37.40;66.00
5128;DHT22;2582;48.770;9.190;2023-08-20T15:53:55;36.70;66.80
5128;DHT22;2582;48.770;9.190;2023-08-20T15:56:21;36.60;67.10
5128;DHT22;2582;48.770;9.190;2023-08-20T15:58:46;37.20;65.70
5128;DHT22;2582;48.770;9.190;2023-08-20T16:01:13;38.90;63.00
5128;DHT22;2582;48.770;9.190;2023-08-20T16:03:38;39.60;61.10
5128;DHT22;2582;48.770;9.190;2023-08-20T16:06:04;40.00;60.60
5128;DHT22;2582;48.770;9.190;2023-08-20T16:08:30;39.20;62.20
5128;DHT22;2582;48.770;9.190;2023-08-20T16:10:55;38.40;63.60
5128;DHT22;2582;48.770;9.190;2023-08-20T16:13:21;38.00;63.90